sensor_id;sensor_type;location;lat;lon;timestamp;pressure;altitude;pressure_sealevel;temperature;humidity
12963;BME280;6546;49.882;8.666;2023-02-19T00:00:59;100497.72;;;10.67;70.04
12963;BME280;6546;49.882;8.666;2023-02-19T00:03:28;100494.16;;;10.68;69.83
12963;BME280;6546;49.882;8.666;2023-02-19T00:05:55;100487.97;;;10.61;70.08
12963;BME280;6546;49.882;8.666;2023-02-19T00:08:22;100489.44;;;10.63;70.50
12963;BME280;6546;49.882;8.666;2023-02-19T00:10:50;100480.19;;;10.61;70.30
12963;BME280;6546;49.882;8.666;2023-02-19T00:13:17;100472.59;;;10.59;70.12
12963;BME280;6546;49.882;8.666;2023-02-19T00:15:44;100475.31;;;10.58;70.50
12963;BME280;6546;49.882;8.666;2023-02-19T00:18:13;100465.03;;;10.66;70.21
12963;BME280;6546;49.882;8.666;2023-02-19T00:20:40;100468.25;;;10.60;70.66
12963;BME280;6546;49.882;8.666;2023-02-19T00:23:07;100476.00;;;10.60;70.62
12963;BME280;6546;49.882;8.666;2023-02-19T00:25:35;100472.13;;;10.64;70.56
12963;BME280;6546;49.882;8.666;2023-02-19T00:28:03;100470.88;;;10.68;70.47
12963;BME280;6546;49.882;8.666;2023-02-19T00:30:30;100476.50;;;10.63;70.71
12963;BME280;6546;49.882;8.666;2023-02-19T00:32:57;100455.94;;;10.62;70.34
12963;BME280;6546;49.882;8.666;2023-02-19T00:35:23;100456.91;;;10.61;70.70
12963;BME280;6546;49.882;8.666;2023-02-19T00:37:50;100460.94;;;10.63;70.55
12963;BME280;6546;49.882;8.666;2023-02-19T00:40:16;100454.97;;;10.63;70.42
12963;BME280;6546;49.882;8.666;2023-02-19T00:42:43;100462.59;;;10.64;70.87
12963;BME280;6546;49.882;8.666;2023-02-19T00:45:11;100462.59;;;10.64;70.43
12963;BME280;6546;49.882;8.666;2023-02-19T00:47:37;100459.84;;;10.66;70.54
12963;BME280;6546;49.882;8.666;2023-02-19T00:50:04;100465.66;;;10.60;70.61
12963;BME280;6546;49.882;8.666;2023-02-19T00:52:31;100473.41;;;10.60;70.72
12963;BME280;6546;49.882;8.666;2023-02-19T00:54:58;100466.63;;;10.67;70.42
12963;BME280;6546;49.882;8.666;2023-02-19T00:57:24;100466.13;;;10.63;70.56
12963;BME280;6546;49.882;8.666;2023-02-19T00:59:51;100472.81;;;10.66;70.52
12963;BME280;6546;49.882;8.666;2023-02-19T01:02:22;100473.56;;;10.58;70.81
12963;BME280;6546;49.882;8.666;2023-02-19T01:04:49;100465.03;;;10.66;70.47
12963;BME280;6546;49.882;8.666;2023-02-19T01:07:15;100451.72;;;10.61;70.95
12963;BME280;6546;49.882;8.666;2023-02-19T01:09:42;100451.50;;;10.54;71.23
12963;BME280;6546;49.882;8.666;2023-02-19T01:12:09;100457.00;;;10.51;71.54
12963;BME280;6546;49.882;8.666;2023-02-19T01:14:35;100454.28;;;10.52;71.40
12963;BME280;6546;49.882;8.666;2023-02-19T01:17:02;100464.00;;;10.59;70.99
12963;BME280;6546;49.882;8.666;2023-02-19T01:19:30;100456.56;;;10.56;71.38
12963;BME280;6546;49.882;8.666;2023-02-19T01:21:59;100452.63;;;10.51;71.56
12963;BME280;6546;49.882;8.666;2023-02-19T01:24:26;100462.19;;;10.51;71.55
12963;BME280;6546;49.882;8.666;2023-02-19T01:26:53;100462.38;;;10.58;71.40
12963;BME280;6546;49.882;8.666;2023-02-19T01:29:19;100453.66;;;10.59;71.44
12963;BME280;6546;49.882;8.666;2023-02-19T01:31:46;100455.09;;;10.53;71.71
12963;BME280;6546;49.882;8.666;2023-02-19T01:34:13;100456.19;;;10.50;71.71
12963;BME280;6546;49.882;8.666;2023-02-19T01:36:41;100450.22;;;10.50;71.83
12963;BME280;6546;49.882;8.666;2023-02-19T01:39:09;100450.22;;;10.50;71.95
12963;BME280;6546;49.882;8.666;2023-02-19T01:41:37;100439.19;;;10.48;72.11
12963;BME280;6546;49.882;8.666;2023-02-19T01:44:06;100431.22;;;10.41;72.24
12963;BME280;6546;49.882;8.666;2023-02-19T01:46:34;100436.16;;;10.52;72.08
12963;BME280;6546;49.882;8.666;2023-02-19T01:49:04;100436.16;;;10.52;72.06
12963;BME280;6546;49.882;8.666;2023-02-19T01:51:32;100434.47;;;10.43;72.47
12963;BME280;6546;49.882;8.666;2023-02-19T01:54:04;100426.25;;;10.48;72.51
12963;BME280;6546;49.882;8.666;2023-02-19T01:56:33;100419.84;;;10.34;72.80
12963;BME280;6546;49.882;8.666;2023-02-19T01:59:02;100417.97;;;10.44;72.78
12963;BME280;6546;49.882;8.666;2023-02-19T02:01:29;100426.03;;;10.41;72.72
12963;BME280;6546;49.882;8.666;2023-02-19T02:04:07;100421.63;;;10.34;73.17
12963;BME280;6546;49.882;8.666;2023-02-19T02:06:38;100419.84;;;10.34;73.35
12963;BME280;6546;49.882;8.666;2023-02-19T02:09:09;100421.47;;;10.35;73.30
12963;BME280;6546;49.882;8.666;2023-02-19T02:11:53;100406.09;;;10.34;73.32
12963;BME280;6546;49.882;8.666;2023-02-19T02:14:23;100413.88;;;10.34;73.51
12963;BME280;6546;49.882;8.666;2023-02-19T02:16:54;100406.25;;;10.32;73.59
12963;BME280;6546;49.882;8.666;2023-02-19T02:19:31;100402.72;;;10.41;73.44
12963;BME280;6546;49.882;8.666;2023-02-19T02:22:09;100396.22;;;10.37;73.47
12963;BME280;6546;49.882;8.666;2023-02-19T02:28:02;100383.59;;;10.34;73.60
12963;BME280;6546;49.882;8.666;2023-02-19T02:30:36;100374.53;;;10.30;73.72
12963;BME280;6546;49.882;8.666;2023-02-19T02:33:13;100368.34;;;10.23;74.21
12963;BME280;6546;49.882;8.666;2023-02-19T02:35:44;100368.38;;;10.31;73.82
12963;BME280;6546;49.882;8.666;2023-02-19T02:38:13;100371.94;;;10.30;73.83
12963;BME280;6546;49.882;8.666;2023-02-19T02:40:42;100358.63;;;10.25;74.27
12963;BME280;6546;49.882;8.666;2023-02-19T02:43:10;100361.53;;;10.22;74.21
12963;BME280;6546;49.882;8.666;2023-02-19T02:45:38;100351.66;;;10.18;74.38
12963;BME280;6546;49.882;8.666;2023-02-19T02:48:15;100373.81;;;10.20;74.30
12963;BME280;6546;49.882;8.666;2023-02-19T02:50:46;100377.44;;;10.27;74.17
12963;BME280;6546;49.882;8.666;2023-02-19T02:53:17;100374.47;;;10.22;74.54
12963;BME280;6546;49.882;8.666;2023-02-19T02:56:03;100364.44;;;10.19;74.43
12963;BME280;6546;49.882;8.666;2023-02-19T02:58:31;100363.09;;;10.15;75.07
12963;BME280;6546;49.882;8.666;2023-02-19T03:01:03;100357.63;;;10.18;74.55
12963;BME280;6546;49.882;8.666;2023-02-19T03:03:52;100347.28;;;10.18;74.46
12963;BME280;6546;49.882;8.666;2023-02-19T03:06:21;100351.44;;;10.11;75.02
12963;BME280;6546;49.882;8.666;2023-02-19T03:08:52;100340.91;;;10.13;74.95
12963;BME280;6546;49.882;8.666;2023-02-19T03:11:22;100329.16;;;10.18;74.92
12963;BME280;6546;49.882;8.666;2023-02-19T03:14:11;100326.19;;;10.13;74.86
12963;BME280;6546;49.882;8.666;2023-02-19T03:17:02;100340.41;;;10.09;75.07
12963;BME280;6546;49.882;8.666;2023-02-19T03:19:51;100347.34;;;10.09;75.46
12963;BME280;6546;49.882;8.666;2023-02-19T03:22:21;100348.84;;;10.11;75.45
12963;BME280;6546;49.882;8.666;2023-02-19T03:24:54;100337.50;;;10.12;75.46
12963;BME280;6546;49.882;8.666;2023-02-19T03:27:40;100330.53;;;10.05;75.95
12963;BME280;6546;49.882;8.666;2023-02-19T03:30:10;100334.56;;;10.07;75.93
12963;BME280;6546;49.882;8.666;2023-02-19T03:32:43;100346.25;;;10.11;75.63
12963;BME280;6546;49.882;8.666;2023-02-19T03:35:14;100346.25;;;10.11;75.61
12963;BME280;6546;49.882;8.666;2023-02-19T03:37:44;100362.03;;;10.08;75.63
12963;BME280;6546;49.882;8.666;2023-02-19T03:40:20;100351.44;;;10.11;75.38
12963;BME280;6546;49.882;8.666;2023-02-19T03:42:54;100349.47;;;10.13;75.38
12963;BME280;6546;49.882;8.666;2023-02-19T03:45:29;100351.66;;;10.18;75.08
12963;BME280;6546;49.882;8.666;2023-02-19T03:48:12;100358.59;;;10.17;75.01
12963;BME280;6546;49.882;8.666;2023-02-19T03:50:45;100360.22;;;10.18;74.67
12963;BME280;6546;49.882;8.666;2023-02-19T03:53:20;100362.78;;;10.18;74.56
12963;BME280;6546;49.882;8.666;2023-02-19T03:55:53;100370.19;;;10.13;74.89
12963;BME280;6546;49.882;8.666;2023-02-19T03:58:29;100378.31;;;10.18;74.76
12963;BME280;6546;49.882;8.666;2023-02-19T04:01:03;100379.66;;;10.22;74.41
12963;BME280;6546;49.882;8.666;2023-02-19T04:03:36;100378.91;;;10.12;74.87
12963;BME280;6546;49.882;8.666;2023-02-19T04:06:09;100383.19;;;10.21;74.68
12963;BME280;6546;49.882;8.666;2023-02-19T04:08:37;100381.22;;;10.15;75.08
12963;BME280;6546;49.882;8.666;2023-02-19T04:11:06;100387.72;;;10.19;74.85
12963;BME280;6546;49.882;8.666;2023-02-19T04:13:37;100380.25;;;10.16;75.04
12963;BME280;6546;49.882;8.666;2023-02-19T04:16:10;100375.34;;;10.13;75.42
12963;BME280;6546;49.882;8.666;2023-02-19T04:18:42;100368.44;;;10.14;75.21
12963;BME280;6546;49.882;8.666;2023-02-19T04:21:12;100376.31;;;10.12;75.20
12963;BME280;6546;49.882;8.666;2023-02-19T04:23:42;100373.63;;;10.14;75.29
12963;BME280;6546;49.882;8.666;2023-02-19T04:26:10;100371.03;;;10.14;75.16
12963;BME280;6546;49.882;8.666;2023-02-19T04:28:38;100371.53;;;10.17;74.99
12963;BME280;6546;49.882;8.666;2023-02-19T04:31:05;100378.25;;;10.10;75.18
12963;BME280;6546;49.882;8.666;2023-02-19T04:33:31;100368.53;;;10.12;74.86
12963;BME280;6546;49.882;8.666;2023-02-19T04:36:00;100385.44;;;10.16;74.62
12963;BME280;6546;49.882;8.666;2023-02-19T04:38:26;100380.25;;;10.16;74.63
12963;BME280;6546;49.882;8.666;2023-02-19T04:40:53;100388.66;;;10.18;74.51
12963;BME280;6546;49.882;8.666;2023-02-19T04:43:19;100386.31;;;10.07;75.12
12963;BME280;6546;49.882;8.666;2023-02-19T04:45:46;100386.31;;;10.07;75.06
12963;BME280;6546;49.882;8.666;2023-02-19T04:48:13;100372.69;;;10.05;75.00
12963;BME280;6546;49.882;8.666;2023-02-19T04:50:40;100377.56;;;10.08;74.95
12963;BME280;6546;49.882;8.666;2023-02-19T04:53:08;100384.06;;;10.12;74.90
12963;BME280;6546;49.882;8.666;2023-02-19T04:55:36;100380.66;;;10.12;74.87
12963;BME280;6546;49.882;8.666;2023-02-19T04:58:03;100376.47;;;10.11;74.90
12963;BME280;6546;49.882;8.666;2023-02-19T05:00:29;100392.00;;;10.11;74.77
12963;BME280;6546;49.882;8.666;2023-02-19T05:02:58;100397.94;;;10.21;74.49
12963;BME280;6546;49.882;8.666;2023-02-19T05:05:24;100404.19;;;10.18;74.42
12963;BME280;6546;49.882;8.666;2023-02-19T05:07:51;100404.50;;;10.15;74.76
12963;BME280;6546;49.882;8.666;2023-02-19T05:10:19;100380.31;;;10.07;74.84
12963;BME280;6546;49.882;8.666;2023-02-19T05:12:45;100395.47;;;10.19;75.64
12963;BME280;6546;49.882;8.666;2023-02-19T05:15:12;100386.44;;;10.06;76.05
12963;BME280;6546;49.882;8.666;2023-02-19T05:17:38;100392.81;;;10.11;76.73
12963;BME280;6546;49.882;8.666;2023-02-19T05:20:06;100384.03;;;10.04;77.20
12963;BME280;6546;49.882;8.666;2023-02-19T05:22:33;100397.28;;;10.01;77.61
12963;BME280;6546;49.882;8.666;2023-02-19T05:24:59;100413.75;;;10.00;77.71
12963;BME280;6546;49.882;8.666;2023-02-19T05:27:29;100427.94;;;9.96;77.98
12963;BME280;6546;49.882;8.666;2023-02-19T05:29:56;100429.19;;;9.92;78.09
12963;BME280;6546;49.882;8.666;2023-02-19T05:32:22;100426.59;;;9.92;78.52
12963;BME280;6546;49.882;8.666;2023-02-19T05:34:50;100438.94;;;9.98;77.77
12963;BME280;6546;49.882;8.666;2023-02-19T05:37:16;100441.53;;;9.98;77.77
12963;BME280;6546;49.882;8.666;2023-02-19T05:39:43;100446.03;;;9.96;77.70
12963;BME280;6546;49.882;8.666;2023-02-19T05:42:12;100444.44;;;9.95;77.73
12963;BME280;6546;49.882;8.666;2023-02-19T05:44:40;100442.63;;;9.95;77.82
12963;BME280;6546;49.882;8.666;2023-02-19T05:47:06;100445.00;;;9.89;78.22
12963;BME280;6546;49.882;8.666;2023-02-19T05:49:33;100453.13;;;9.94;77.93
12963;BME280;6546;49.882;8.666;2023-02-19T05:52:00;100444.03;;;9.90;78.21
12963;BME280;6546;49.882;8.666;2023-02-19T05:54:27;100448.25;;;9.91;77.84
12963;BME280;6546;49.882;8.666;2023-02-19T05:56:54;100454.25;;;9.91;77.94
12963;BME280;6546;49.882;8.666;2023-02-19T05:59:22;100458.31;;;9.94;77.92
12963;BME280;6546;49.882;8.666;2023-02-19T06:01:52;100464.00;;;9.97;77.50
12963;BME280;6546;49.882;8.666;2023-02-19T06:04:19;100471.91;;;9.96;77.68
12963;BME280;6546;49.882;8.666;2023-02-19T06:06:46;100473.84;;;9.94;77.49
12963;BME280;6546;49.882;8.666;2023-02-19T06:09:13;100475.31;;;9.96;77.37
12963;BME280;6546;49.882;8.666;2023-02-19T06:11:39;100479.81;;;9.94;77.38
12963;BME280;6546;49.882;8.666;2023-02-19T06:14:07;100479.00;;;9.94;77.28
12963;BME280;6546;49.882;8.666;2023-02-19T06:16:34;100497.47;;;9.99;76.78
12963;BME280;6546;49.882;8.666;2023-02-19T06:19:02;100500.34;;;9.96;77.05
12963;BME280;6546;49.882;8.666;2023-02-19T06:21:29;100504.16;;;10.01;76.52
12963;BME280;6546;49.882;8.666;2023-02-19T06:23:56;100498.16;;;10.01;76.64
12963;BME280;6546;49.882;8.666;2023-02-19T06:26:23;100505.09;;;10.00;76.74
12963;BME280;6546;49.882;8.666;2023-02-19T06:28:51;100506.50;;;9.95;76.82
12963;BME280;6546;49.882;8.666;2023-02-19T06:31:20;100506.50;;;9.95;77.05
12963;BME280;6546;49.882;8.666;2023-02-19T06:33:47;100503.75;;;9.96;77.13
12963;BME280;6546;49.882;8.666;2023-02-19T06:36:17;100503.63;;;9.98;77.32
12963;BME280;6546;49.882;8.666;2023-02-19T06:38:44;100501.03;;;9.98;77.56
12963;BME280;6546;49.882;8.666;2023-02-19T06:41:11;100502.19;;;9.86;77.94
12963;BME280;6546;49.882;8.666;2023-02-19T06:43:38;100505.16;;;9.91;77.98
12963;BME280;6546;49.882;8.666;2023-02-19T06:46:06;100509.00;;;9.87;78.18
12963;BME280;6546;49.882;8.666;2023-02-19T06:48:33;100514.16;;;9.87;78.15
12963;BME280;6546;49.882;8.666;2023-02-19T06:51:00;100514.97;;;9.87;78.15
12963;BME280;6546;49.882;8.666;2023-02-19T06:53:29;100520.16;;;9.87;78.27
12963;BME280;6546;49.882;8.666;2023-02-19T06:55:56;100524.81;;;9.84;78.40
12963;BME280;6546;49.882;8.666;2023-02-19T06:58:24;100533.38;;;9.84;78.77
12963;BME280;6546;49.882;8.666;2023-02-19T07:00:51;100540.56;;;9.90;78.47
12963;BME280;6546;49.882;8.666;2023-02-19T07:03:18;100544.53;;;9.85;78.82
12963;BME280;6546;49.882;8.666;2023-02-19T07:05:44;100537.03;;;9.91;78.67
12963;BME280;6546;49.882;8.666;2023-02-19T07:08:11;100546.69;;;9.89;78.80
12963;BME280;6546;49.882;8.666;2023-02-19T07:10:39;100546.84;;;9.88;78.75
12963;BME280;6546;49.882;8.666;2023-02-19T07:13:05;100547.50;;;9.90;78.64
12963;BME280;6546;49.882;8.666;2023-02-19T07:15:32;100543.44;;;9.87;78.81
12963;BME280;6546;49.882;8.666;2023-02-19T07:17:59;100545.06;;;9.88;78.49
12963;BME280;6546;49.882;8.666;2023-02-19T07:20:25;100554.31;;;9.91;78.29
12963;BME280;6546;49.882;8.666;2023-02-19T07:22:52;100565.00;;;9.96;78.08
12963;BME280;6546;49.882;8.666;2023-02-19T07:25:18;100559.84;;;9.96;77.87
12963;BME280;6546;49.882;8.666;2023-02-19T07:27:47;100562.88;;;9.91;78.01
12963;BME280;6546;49.882;8.666;2023-02-19T07:30:14;100563.25;;;9.96;77.63
12963;BME280;6546;49.882;8.666;2023-02-19T07:32:40;100573.16;;;10.01;77.50
12963;BME280;6546;49.882;8.666;2023-02-19T07:35:09;100570.72;;;9.99;77.42
12963;BME280;6546;49.882;8.666;2023-02-19T07:37:36;100566.50;;;9.98;77.37
12963;BME280;6546;49.882;8.666;2023-02-19T07:40:03;100560.38;;;9.99;77.30
12963;BME280;6546;49.882;8.666;2023-02-19T07:42:30;100581.28;;;10.06;77.05
12963;BME280;6546;49.882;8.666;2023-02-19T07:44:58;100575.16;;;10.07;77.30
12963;BME280;6546;49.882;8.666;2023-02-19T07:47:25;100584.28;;;10.11;77.38
12963;BME280;6546;49.882;8.666;2023-02-19T07:49:51;100594.38;;;10.14;77.34
12963;BME280;6546;49.882;8.666;2023-02-19T07:52:18;100596.50;;;10.19;76.88
12963;BME280;6546;49.882;8.666;2023-02-19T07:54:45;100600.56;;;10.21;77.03
12963;BME280;6546;49.882;8.666;2023-02-19T07:57:11;100605.59;;;10.23;76.87
12963;BME280;6546;49.882;8.666;2023-02-19T07:59:38;100609.81;;;10.24;77.04
12963;BME280;6546;49.882;8.666;2023-02-19T08:02:13;100612.53;;;10.22;76.89
12963;BME280;6546;49.882;8.666;2023-02-19T08:04:58;100621.25;;;10.21;77.08
12963;BME280;6546;49.882;8.666;2023-02-19T08:07:30;100624.81;;;10.20;77.29
12963;BME280;6546;49.882;8.666;2023-02-19T08:09:57;100621.78;;;10.25;76.97
12963;BME280;6546;49.882;8.666;2023-02-19T08:12:54;100625.34;;;10.24;76.70
12963;BME280;6546;49.882;8.666;2023-02-19T08:15:38;100615.53;;;10.27;76.91
12963;BME280;6546;49.882;8.666;2023-02-19T08:18:06;100615.22;;;10.30;76.54
12963;BME280;6546;49.882;8.666;2023-02-19T08:20:33;100616.84;;;10.31;76.43
12963;BME280;6546;49.882;8.666;2023-02-19T08:22:59;100619.13;;;10.34;76.29
12963;BME280;6546;49.882;8.666;2023-02-19T08:25:26;100622.22;;;10.38;75.28
12963;BME280;6546;49.882;8.666;2023-02-19T08:27:53;100625.34;;;10.41;75.24
12963;BME280;6546;49.882;8.666;2023-02-19T08:30:20;100646.59;;;10.45;74.70
12963;BME280;6546;49.882;8.666;2023-02-19T08:32:46;100651.91;;;10.43;74.80
12963;BME280;6546;49.882;8.666;2023-02-19T08:35:15;100649.69;;;10.48;74.63
12963;BME280;6546;49.882;8.666;2023-02-19T08:37:41;100654.22;;;10.46;74.38
12963;BME280;6546;49.882;8.666;2023-02-19T08:40:09;100657.31;;;10.50;74.25
12963;BME280;6546;49.882;8.666;2023-02-19T08:42:35;100668.03;;;10.55;73.74
12963;BME280;6546;49.882;8.666;2023-02-19T08:45:03;100676.94;;;10.52;74.08
12963;BME280;6546;49.882;8.666;2023-02-19T08:47:29;100671.34;;;10.47;73.97
12963;BME280;6546;49.882;8.666;2023-02-19T08:49:56;100690.81;;;10.51;73.85
12963;BME280;6546;49.882;8.666;2023-02-19T08:52:24;100691.88;;;10.59;74.32
12963;BME280;6546;49.882;8.666;2023-02-19T08:54:50;100697.63;;;10.52;74.12
12963;BME280;6546;49.882;8.666;2023-02-19T08:57:17;100697.94;;;10.49;74.91
12963;BME280;6546;49.882;8.666;2023-02-19T08:59:44;100698.75;;;10.50;75.05
12963;BME280;6546;49.882;8.666;2023-02-19T09:02:10;100701.47;;;10.48;75.42
12963;BME280;6546;49.882;8.666;2023-02-19T09:04:37;100701.53;;;10.57;74.78
12963;BME280;6546;49.882;8.666;2023-02-19T09:07:04;100706.53;;;10.50;74.50
12963;BME280;6546;49.882;8.666;2023-02-19T09:09:36;100705.25;;;10.54;74.64
12963;BME280;6546;49.882;8.666;2023-02-19T09:12:03;100705.19;;;10.64;73.51
12963;BME280;6546;49.882;8.666;2023-02-19T09:14:30;100707.94;;;10.62;73.03
12963;BME280;6546;49.882;8.666;2023-02-19T09:16:57;100715.53;;;10.64;72.67
12963;BME280;6546;49.882;8.666;2023-02-19T09:19:24;100716.59;;;10.71;72.24
12963;BME280;6546;49.882;8.666;2023-02-19T09:21:51;100717.69;;;10.68;72.63
12963;BME280;6546;49.882;8.666;2023-02-19T09:24:18;100718.53;;;10.69;72.46
12963;BME280;6546;49.882;8.666;2023-02-19T09:26:49;100713.88;;;10.72;72.06
12963;BME280;6546;49.882;8.666;2023-02-19T09:29:15;100713.09;;;10.80;71.15
12963;BME280;6546;49.882;8.666;2023-02-19T09:31:42;100717.03;;;10.84;71.41
12963;BME280;6546;49.882;8.666;2023-02-19T09:34:09;100715.41;;;10.83;70.63
12963;BME280;6546;49.882;8.666;2023-02-19T09:36:36;100727.91;;;10.87;70.39
12963;BME280;6546;49.882;8.666;2023-02-19T09:39:03;100721.31;;;10.93;70.10
12963;BME280;6546;49.882;8.666;2023-02-19T09:41:33;100719.44;;;10.95;70.18
12963;BME280;6546;49.882;8.666;2023-02-19T09:44:03;100720.44;;;11.02;69.46
12963;BME280;6546;49.882;8.666;2023-02-19T09:46:34;100711.78;;;11.11;68.33
12963;BME280;6546;49.882;8.666;2023-02-19T09:49:04;100725.41;;;11.13;68.29
12963;BME280;6546;49.882;8.666;2023-02-19T09:51:33;100725.75;;;11.18;67.85
12963;BME280;6546;49.882;8.666;2023-02-19T09:54:03;100719.63;;;11.19;67.83
12963;BME280;6546;49.882;8.666;2023-02-19T09:56:32;100726.78;;;11.25;68.33
12963;BME280;6546;49.882;8.666;2023-02-19T09:59:00;100714.72;;;11.34;67.52
12963;BME280;6546;49.882;8.666;2023-02-19T10:01:31;100721.38;;;11.36;67.82
12963;BME280;6546;49.882;8.666;2023-02-19T10:04:02;100706.78;;;11.35;66.76
12963;BME280;6546;49.882;8.666;2023-02-19T10:06:31;100716.53;;;11.41;66.93
12963;BME280;6546;49.882;8.666;2023-02-19T10:09:12;100727.22;;;11.38;67.07
12963;BME280;6546;49.882;8.666;2023-02-19T10:11:40;100723.97;;;11.36;67.67
12963;BME280;6546;49.882;8.666;2023-02-19T10:14:12;100729.16;;;11.36;67.15
12963;BME280;6546;49.882;8.666;2023-02-19T10:16:44;100727.16;;;11.30;67.28
12963;BME280;6546;49.882;8.666;2023-02-19T10:19:11;100735.56;;;11.24;67.13
12963;BME280;6546;49.882;8.666;2023-02-19T10:21:38;100739.75;;;11.25;67.04
12963;BME280;6546;49.882;8.666;2023-02-19T10:24:06;100738.41;;;11.21;67.54
12963;BME280;6546;49.882;8.666;2023-02-19T10:26:33;100736.41;;;11.15;67.75
12963;BME280;6546;49.882;8.666;2023-02-19T10:29:01;100748.44;;;11.16;67.44
12963;BME280;6546;49.882;8.666;2023-02-19T10:31:30;100754.25;;;11.18;67.01
12963;BME280;6546;49.882;8.666;2023-02-19T10:33:59;100742.28;;;11.17;66.86
12963;BME280;6546;49.882;8.666;2023-02-19T10:36:28;100750.19;;;11.16;67.44
12963;BME280;6546;49.882;8.666;2023-02-19T10:38:58;100754.94;;;11.20;67.12
12963;BME280;6546;49.882;8.666;2023-02-19T10:41:26;100757.38;;;11.22;67.40
12963;BME280;6546;49.882;8.666;2023-02-19T10:43:54;100754.03;;;11.29;67.24
12963;BME280;6546;49.882;8.666;2023-02-19T10:46:24;100763.50;;;11.38;66.36
12963;BME280;6546;49.882;8.666;2023-02-19T10:48:54;100754.78;;;11.39;66.36
12963;BME280;6546;49.882;8.666;2023-02-19T10:51:31;100769.09;;;11.43;65.87
12963;BME280;6546;49.882;8.666;2023-02-19T10:54:06;100788.53;;;11.47;66.40
12963;BME280;6546;49.882;8.666;2023-02-19T10:56:33;100789.06;;;11.51;65.84
12963;BME280;6546;49.882;8.666;2023-02-19T10:59:14;100791.00;;;11.49;66.47
12963;BME280;6546;49.882;8.666;2023-02-19T11:01:52;100786.69;;;11.57;66.49
12963;BME280;6546;49.882;8.666;2023-02-19T11:04:20;100789.66;;;11.63;65.50
12963;BME280;6546;49.882;8.666;2023-02-19T11:06:48;100788.66;;;11.64;64.39
12963;BME280;6546;49.882;8.666;2023-02-19T11:09:23;100799.66;;;11.57;64.96
12963;BME280;6546;49.882;8.666;2023-02-19T11:11:52;100799.66;;;11.57;66.08
12963;BME280;6546;49.882;8.666;2023-02-19T11:14:21;100802.19;;;11.49;67.20
12963;BME280;6546;49.882;8.666;2023-02-19T11:16:50;100811.56;;;11.50;67.47
12963;BME280;6546;49.882;8.666;2023-02-19T11:19:27;100810.63;;;11.51;67.92
12963;BME280;6546;49.882;8.666;2023-02-19T11:21:57;100822.16;;;11.57;67.53
12963;BME280;6546;49.882;8.666;2023-02-19T11:24:28;100818.19;;;11.63;66.42
12963;BME280;6546;49.882;8.666;2023-02-19T11:26:56;100802.69;;;11.71;65.52
12963;BME280;6546;49.882;8.666;2023-02-19T11:29:24;100808.56;;;11.73;65.50
12963;BME280;6546;49.882;8.666;2023-02-19T11:31:53;100806.31;;;11.78;65.32
12963;BME280;6546;49.882;8.666;2023-02-19T11:34:26;100819.34;;;11.86;64.22
12963;BME280;6546;49.882;8.666;2023-02-19T11:37:10;100816.59;;;11.87;64.13
12963;BME280;6546;49.882;8.666;2023-02-19T11:39:38;100803.50;;;11.89;63.84
12963;BME280;6546;49.882;8.666;2023-02-19T11:42:26;100813.88;;;11.89;64.20
12963;BME280;6546;49.882;8.666;2023-02-19T11:45:08;100808.31;;;11.84;64.33
12963;BME280;6546;49.882;8.666;2023-02-19T11:50:28;100794.56;;;11.91;63.94
12963;BME280;6546;49.882;8.666;2023-02-19T11:53:11;100800.19;;;12.04;63.62
12963;BME280;6546;49.882;8.666;2023-02-19T11:55:50;100791.91;;;12.09;63.51
12963;BME280;6546;49.882;8.666;2023-02-19T11:58:56;100811.09;;;12.16;61.75
12963;BME280;6546;49.882;8.666;2023-02-19T12:01:34;100819.84;;;12.15;61.63
12963;BME280;6546;49.882;8.666;2023-02-19T12:07:15;100804.56;;;12.12;62.14
12963;BME280;6546;49.882;8.666;2023-02-19T12:09:59;100799.38;;;12.12;62.15
12963;BME280;6546;49.882;8.666;2023-02-19T12:12:46;100814.41;;;12.26;61.51
12963;BME280;6546;49.882;8.666;2023-02-19T12:19:04;100812.38;;;12.12;60.35
12963;BME280;6546;49.882;8.666;2023-02-19T12:21:43;100811.59;;;12.12;60.79
12963;BME280;6546;49.882;8.666;2023-02-19T12:27:27;100810.19;;;11.99;60.34
12963;BME280;6546;49.882;8.666;2023-02-19T12:30:13;100820.25;;;12.02;60.47
12963;BME280;6546;49.882;8.666;2023-02-19T12:32:55;100796.25;;;12.00;60.42
12963;BME280;6546;49.882;8.666;2023-02-19T12:35:43;100813.78;;;11.98;60.65
12963;BME280;6546;49.882;8.666;2023-02-19T12:38:20;100807.06;;;11.96;61.27
12963;BME280;6546;49.882;8.666;2023-02-19T12:41:04;100805.38;;;12.04;60.96
12963;BME280;6546;49.882;8.666;2023-02-19T12:43:41;100801.03;;;12.13;60.23
12963;BME280;6546;49.882;8.666;2023-02-19T12:46:13;100792.78;;;12.18;60.13
12963;BME280;6546;49.882;8.666;2023-02-19T12:48:47;100808.19;;;12.19;59.86
12963;BME280;6546;49.882;8.666;2023-02-19T12:51:21;100811.16;;;12.24;59.00
12963;BME280;6546;49.882;8.666;2023-02-19T12:53:52;100810.84;;;12.27;58.98
12963;BME280;6546;49.882;8.666;2023-02-19T12:56:22;100801.28;;;12.28;57.44
12963;BME280;6546;49.882;8.666;2023-02-19T12:58:54;100801.41;;;12.26;57.57
12963;BME280;6546;49.882;8.666;2023-02-19T13:01:26;100788.47;;;12.34;57.73
12963;BME280;6546;49.882;8.666;2023-02-19T13:04:21;100788.19;;;12.37;57.21
12963;BME280;6546;49.882;8.666;2023-02-19T13:06:52;100784.59;;;12.38;57.59
12963;BME280;6546;49.882;8.666;2023-02-19T13:09:25;100787.25;;;12.46;56.44
12963;BME280;6546;49.882;8.666;2023-02-19T13:11:58;100778.81;;;12.52;56.09
12963;BME280;6546;49.882;8.666;2023-02-19T13:14:33;100779.94;;;12.50;56.19
12963;BME280;6546;49.882;8.666;2023-02-19T13:17:05;100777.84;;;12.53;56.06
12963;BME280;6546;49.882;8.666;2023-02-19T13:19:35;100786.63;;;12.60;55.73
12963;BME280;6546;49.882;8.666;2023-02-19T13:22:06;100780.31;;;12.63;56.16
12963;BME280;6546;49.882;8.666;2023-02-19T13:25:00;100782.59;;;12.66;55.86
12963;BME280;6546;49.882;8.666;2023-02-19T13:27:39;100793.50;;;12.70;56.24
12963;BME280;6546;49.882;8.666;2023-02-19T13:30:28;100773.50;;;12.70;56.43
12963;BME280;6546;49.882;8.666;2023-02-19T13:33:10;100780.31;;;12.71;56.56
12963;BME280;6546;49.882;8.666;2023-02-19T13:36:00;100780.00;;;12.74;56.25